sensor_id;sensor_type;location;lat;lon;timestamp;pressure;altitude;pressure_sealevel;temperature;humidity
72961;BME280;61141;46.204;19.774;2023-01-09T00:02:24;100097.16;;;6.79;93.14
72961;BME280;61141;46.204;19.774;2023-01-09T00:05:27;100090.19;;;6.66;93.64
72961;BME280;61141;46.204;19.774;2023-01-09T00:08:31;100098.19;;;6.59;94.12
72961;BME280;61141;46.204;19.774;2023-01-09T00:11:34;100096.16;;;6.56;94.10
72961;BME280;61141;46.204;19.774;2023-01-09T00:14:36;100083.97;;;6.65;93.80
72961;BME280;61141;46.204;19.774;2023-01-09T00:17:40;100089.84;;;6.52;94.06
72961;BME280;61141;46.204;19.774;2023-01-09T00:20:42;100083.94;;;6.49;94.04
72961;BME280;61141;46.204;19.774;2023-01-09T00:23:45;100083.56;;;6.35;94.43
72961;BME280;61141;46.204;19.774;2023-01-09T00:26:48;100079.97;;;6.31;94.46
72961;BME280;61141;46.204;19.774;2023-01-09T00:29:51;100078.47;;;6.34;94.54
72961;BME280;61141;46.204;19.774;2023-01-09T00:32:54;100074.22;;;6.21;94.85
72961;BME280;61141;46.204;19.774;2023-01-09T00:35:58;100073.22;;;6.13;94.85
72961;BME280;61141;46.204;19.774;2023-01-09T00:39:00;100059.97;;;6.12;94.62
72961;BME280;61141;46.204;19.774;2023-01-09T00:42:04;100076.97;;;6.09;95.10
72961;BME280;61141;46.204;19.774;2023-01-09T00:45:12;100070.75;;;6.08;95.11
72961;BME280;61141;46.204;19.774;2023-01-09T00:48:19;100081.88;;;6.03;95.35
72961;BME280;61141;46.204;19.774;2023-01-09T00:51:28;100076.34;;;6.00;95.66
72961;BME280;61141;46.204;19.774;2023-01-09T00:54:31;100076.88;;;6.05;95.46
72961;BME280;61141;46.204;19.774;2023-01-09T00:57:34;100071.25;;;5.98;95.58
72961;BME280;61141;46.204;19.774;2023-01-09T01:00:37;100082.81;;;5.95;95.78
72961;BME280;61141;46.204;19.774;2023-01-09T01:03:40;100067.97;;;6.05;95.18
72961;BME280;61141;46.204;19.774;2023-01-09T01:06:43;100075.78;;;5.94;95.70
72961;BME280;61141;46.204;19.774;2023-01-09T01:10:07;100071.25;;;5.98;95.63
72961;BME280;61141;46.204;19.774;2023-01-09T01:13:12;100061.75;;;5.80;95.82
72961;BME280;61141;46.204;19.774;2023-01-09T01:16:15;100069.34;;;5.86;95.94
72961;BME280;61141;46.204;19.774;2023-01-09T01:19:20;100053.59;;;5.80;96.36
72961;BME280;61141;46.204;19.774;2023-01-09T01:22:22;100051.34;;;5.82;96.46
72961;BME280;61141;46.204;19.774;2023-01-09T01:25:26;100049.06;;;5.84;96.26
72961;BME280;61141;46.204;19.774;2023-01-09T01:28:28;100044.56;;;5.88;95.76
72961;BME280;61141;46.204;19.774;2023-01-09T01:31:31;100049.44;;;5.82;95.70
72961;BME280;61141;46.204;19.774;2023-01-09T01:34:34;100049.06;;;5.84;95.52
72961;BME280;61141;46.204;19.774;2023-01-09T01:37:37;100038.44;;;5.79;95.34
72961;BME280;61141;46.204;19.774;2023-01-09T01:40:40;100037.53;;;5.75;95.37
72961;BME280;61141;46.204;19.774;2023-01-09T01:43:54;100020.69;;;5.69;95.59
72961;BME280;61141;46.204;19.774;2023-01-09T01:46:57;100013.69;;;5.68;95.41
72961;BME280;61141;46.204;19.774;2023-01-09T01:50:06;100022.66;;;5.57;95.49
72961;BME280;61141;46.204;19.774;2023-01-09T01:56:29;100004.94;;;5.35;95.56
72961;BME280;61141;46.204;19.774;2023-01-09T01:59:37;100001.19;;;5.27;95.95
72961;BME280;61141;46.204;19.774;2023-01-09T02:02:42;99993.28;;;5.22;96.21
72961;BME280;61141;46.204;19.774;2023-01-09T02:05:47;99983.09;;;5.19;96.28
72961;BME280;61141;46.204;19.774;2023-01-09T02:08:50;99967.66;;;5.08;96.39
72961;BME280;61141;46.204;19.774;2023-01-09T02:11:56;99979.41;;;5.12;96.43
72961;BME280;61141;46.204;19.774;2023-01-09T02:15:10;99973.50;;;5.22;96.11
72961;BME280;61141;46.204;19.774;2023-01-09T02:18:22;99965.69;;;5.20;96.03
72961;BME280;61141;46.204;19.774;2023-01-09T02:41:10;99945.69;;;5.13;95.83
72961;BME280;61141;46.204;19.774;2023-01-09T02:44:16;99946.25;;;5.06;95.48
72961;BME280;61141;46.204;19.774;2023-01-09T02:50:57;99924.78;;;5.01;95.93
72961;BME280;61141;46.204;19.774;2023-01-09T03:04:17;99902.03;;;5.18;94.62
72961;BME280;61141;46.204;19.774;2023-01-09T03:07:35;99911.66;;;5.15;94.01
72961;BME280;61141;46.204;19.774;2023-01-09T03:10:51;99906.53;;;5.14;94.20
72961;BME280;61141;46.204;19.774;2023-01-09T03:14:03;99904.53;;;5.11;94.61
72961;BME280;61141;46.204;19.774;2023-01-09T03:17:12;99896.53;;;5.02;94.61
72961;BME280;61141;46.204;19.774;2023-01-09T03:20:19;99878.31;;;5.03;94.95
72961;BME280;61141;46.204;19.774;2023-01-09T03:23:23;99880.00;;;5.07;94.79
72961;BME280;61141;46.204;19.774;2023-01-09T03:26:26;99884.63;;;5.07;94.61
72961;BME280;61141;46.204;19.774;2023-01-09T03:29:31;99883.09;;;4.94;94.55
72961;BME280;61141;46.204;19.774;2023-01-09T03:32:34;99880.69;;;5.04;94.78
72961;BME280;61141;46.204;19.774;2023-01-09T03:35:37;99878.91;;;4.96;94.52
72961;BME280;61141;46.204;19.774;2023-01-09T03:38:39;99874.69;;;5.11;94.47
72961;BME280;61141;46.204;19.774;2023-01-09T03:41:43;99878.09;;;4.96;94.46
72961;BME280;61141;46.204;19.774;2023-01-09T03:44:45;99885.44;;;5.07;94.51
72961;BME280;61141;46.204;19.774;2023-01-09T03:47:48;99878.31;;;5.03;94.54
72961;BME280;61141;46.204;19.774;2023-01-09T03:50:54;99862.63;;;4.96;94.19
72961;BME280;61141;46.204;19.774;2023-01-09T03:53:57;99871.84;;;5.07;94.47
72961;BME280;61141;46.204;19.774;2023-01-09T03:57:00;99872.09;;;5.02;94.41
72961;BME280;61141;46.204;19.774;2023-01-09T04:00:04;99872.78;;;4.99;94.47
72961;BME280;61141;46.204;19.774;2023-01-09T04:03:15;99868.03;;;4.96;94.44
72961;BME280;61141;46.204;19.774;2023-01-09T04:06:18;99866.88;;;4.97;94.63
72961;BME280;61141;46.204;19.774;2023-01-09T04:09:21;99849.91;;;5.00;94.44
72961;BME280;61141;46.204;19.774;2023-01-09T04:12:24;99858.72;;;5.09;94.37
72961;BME280;61141;46.204;19.774;2023-01-09T04:15:27;99863.72;;;5.07;94.54
72961;BME280;61141;46.204;19.774;2023-01-09T04:18:29;99853.28;;;5.09;94.47
72961;BME280;61141;46.204;19.774;2023-01-09T04:21:33;99850.69;;;5.13;94.46
72961;BME280;61141;46.204;19.774;2023-01-09T04:24:36;99837.59;;;5.03;94.57
72961;BME280;61141;46.204;19.774;2023-01-09T04:27:38;99854.91;;;4.98;94.99
72961;BME280;61141;46.204;19.774;2023-01-09T04:30:41;99843.88;;;4.91;94.63
72961;BME280;61141;46.204;19.774;2023-01-09T04:33:44;99842.94;;;4.99;94.58
72961;BME280;61141;46.204;19.774;2023-01-09T04:36:47;99867.12;;;4.92;94.70
72961;BME280;61141;46.204;19.774;2023-01-09T04:39:50;99862.84;;;4.91;94.87
72961;BME280;61141;46.204;19.774;2023-01-09T04:42:55;99848.00;;;5.01;94.62
72961;BME280;61141;46.204;19.774;2023-01-09T04:45:58;99853.97;;;5.06;94.67
72961;BME280;61141;46.204;19.774;2023-01-09T04:49:01;99854.63;;;5.15;94.26
72961;BME280;61141;46.204;19.774;2023-01-09T04:52:04;99840.41;;;5.06;94.30
72961;BME280;61141;46.204;19.774;2023-01-09T04:55:08;99846.81;;;5.14;93.83
72961;BME280;61141;46.204;19.774;2023-01-09T04:58:10;99843.81;;;5.03;94.26
72961;BME280;61141;46.204;19.774;2023-01-09T05:01:13;99843.78;;;5.15;93.98
72961;BME280;61141;46.204;19.774;2023-01-09T05:04:16;99833.78;;;5.19;93.83
72961;BME280;61141;46.204;19.774;2023-01-09T05:07:19;99825.34;;;5.09;93.92
72961;BME280;61141;46.204;19.774;2023-01-09T05:10:22;99833.22;;;5.26;93.29
72961;BME280;61141;46.204;19.774;2023-01-09T05:13:25;99828.50;;;5.39;92.76
72961;BME280;61141;46.204;19.774;2023-01-09T05:16:28;99828.31;;;5.31;92.77
72961;BME280;61141;46.204;19.774;2023-01-09T05:19:32;99812.66;;;5.41;92.43
72961;BME280;61141;46.204;19.774;2023-01-09T05:22:36;99820.72;;;5.53;91.89
72961;BME280;61141;46.204;19.774;2023-01-09T05:25:41;99815.97;;;5.34;92.51
72961;BME280;61141;46.204;19.774;2023-01-09T05:28:43;99813.38;;;5.38;92.48
72961;BME280;61141;46.204;19.774;2023-01-09T05:31:46;99808.38;;;5.40;91.97
72961;BME280;61141;46.204;19.774;2023-01-09T05:34:49;99808.03;;;5.41;92.23
72961;BME280;61141;46.204;19.774;2023-01-09T05:37:52;99807.16;;;5.53;92.33
72961;BME280;61141;46.204;19.774;2023-01-09T05:40:55;99803.22;;;5.50;92.10
72961;BME280;61141;46.204;19.774;2023-01-09T05:43:58;99793.78;;;5.75;90.94
72961;BME280;61141;46.204;19.774;2023-01-09T05:47:00;99796.59;;;5.79;90.47
72961;BME280;61141;46.204;19.774;2023-01-09T05:50:05;99795.69;;;5.75;90.29
72961;BME280;61141;46.204;19.774;2023-01-09T05:53:49;99795.09;;;5.81;90.29
72961;BME280;61141;46.204;19.774;2023-01-09T05:56:52;99779.37;;;5.75;90.60
72961;BME280;61141;46.204;19.774;2023-01-09T05:59:54;99782.91;;;5.60;90.75
72961;BME280;61141;46.204;19.774;2023-01-09T06:02:58;99782.91;;;5.60;90.96
72961;BME280;61141;46.204;19.774;2023-01-09T06:06:01;99786.16;;;5.65;90.96
72961;BME280;61141;46.204;19.774;2023-01-09T06:09:04;99779.03;;;5.61;90.78
72961;BME280;61141;46.204;19.774;2023-01-09T06:12:07;99772.91;;;5.79;90.31
72961;BME280;61141;46.204;19.774;2023-01-09T06:15:10;99772.78;;;5.88;89.62
72961;BME280;61141;46.204;19.774;2023-01-09T06:18:13;99765.09;;;5.78;90.02
72961;BME280;61141;46.204;19.774;2023-01-09T06:21:16;99750.66;;;5.74;89.94
72961;BME280;61141;46.204;19.774;2023-01-09T06:24:19;99763.47;;;5.58;90.78
72961;BME280;61141;46.204;19.774;2023-01-09T06:27:21;99776.97;;;6.01;89.68
72961;BME280;61141;46.204;19.774;2023-01-09T06:30:24;99758.88;;;5.77;89.89
72961;BME280;61141;46.204;19.774;2023-01-09T06:33:27;99767.84;;;6.09;89.40
72961;BME280;61141;46.204;19.774;2023-01-09T06:36:30;99763.56;;;5.93;89.46
72961;BME280;61141;46.204;19.774;2023-01-09T06:39:32;99766.09;;;6.01;89.31
72961;BME280;61141;46.204;19.774;2023-01-09T06:42:35;99755.56;;;6.15;88.94
72961;BME280;61141;46.204;19.774;2023-01-09T06:45:40;99758.38;;;6.38;88.86
72961;BME280;61141;46.204;19.774;2023-01-09T06:48:43;99766.44;;;6.15;88.48
72961;BME280;61141;46.204;19.774;2023-01-09T06:51:50;99762.09;;;6.49;88.03
72961;BME280;61141;46.204;19.774;2023-01-09T06:54:53;99770.59;;;6.28;87.67
72961;BME280;61141;46.204;19.774;2023-01-09T06:57:56;99763.38;;;6.36;88.34
72961;BME280;61141;46.204;19.774;2023-01-09T07:00:59;99760.56;;;6.32;88.23
72961;BME280;61141;46.204;19.774;2023-01-09T07:04:01;99749.97;;;6.27;88.28
72961;BME280;61141;46.204;19.774;2023-01-09T07:07:06;99747.13;;;6.20;88.27
72961;BME280;61141;46.204;19.774;2023-01-09T07:10:10;99739.12;;;6.46;87.82
72961;BME280;61141;46.204;19.774;2023-01-09T07:13:13;99742.53;;;6.24;87.82
72961;BME280;61141;46.204;19.774;2023-01-09T07:16:16;99749.69;;;6.32;88.20
72961;BME280;61141;46.204;19.774;2023-01-09T07:19:24;99755.19;;;6.52;88.10
72961;BME280;61141;46.204;19.774;2023-01-09T07:22:26;99752.38;;;6.48;88.28
72961;BME280;61141;46.204;19.774;2023-01-09T07:25:30;99745.56;;;6.38;87.70
72961;BME280;61141;46.204;19.774;2023-01-09T07:28:36;99749.53;;;6.60;87.95
72961;BME280;61141;46.204;19.774;2023-01-09T07:31:39;99746.78;;;6.60;87.43
72961;BME280;61141;46.204;19.774;2023-01-09T07:34:42;99737.22;;;6.85;87.49
72961;BME280;61141;46.204;19.774;2023-01-09T07:37:45;99735.94;;;6.79;87.48
72961;BME280;61141;46.204;19.774;2023-01-09T07:40:49;99744.88;;;6.80;86.61
72961;BME280;61141;46.204;19.774;2023-01-09T07:43:52;99733.44;;;6.71;86.76
72961;BME280;61141;46.204;19.774;2023-01-09T07:46:55;99742.22;;;6.83;87.36
72961;BME280;61141;46.204;19.774;2023-01-09T07:49:58;99736.56;;;6.73;87.32
72961;BME280;61141;46.204;19.774;2023-01-09T07:53:00;99727.25;;;7.12;85.41
72961;BME280;61141;46.204;19.774;2023-01-09T07:56:04;99738.34;;;7.03;85.95
72961;BME280;61141;46.204;19.774;2023-01-09T07:59:07;99729.78;;;7.24;85.14
72961;BME280;61141;46.204;19.774;2023-01-09T08:02:10;99739.28;;;7.11;85.66
72961;BME280;61141;46.204;19.774;2023-01-09T08:05:14;99748.91;;;7.28;85.13
72961;BME280;61141;46.204;19.774;2023-01-09T08:08:17;99742.91;;;7.19;84.98
72961;BME280;61141;46.204;19.774;2023-01-09T08:11:20;99752.88;;;7.11;86.21
72961;BME280;61141;46.204;19.774;2023-01-09T08:14:23;99745.81;;;7.06;87.17
72961;BME280;61141;46.204;19.774;2023-01-09T08:17:26;99754.75;;;7.07;87.65
72961;BME280;61141;46.204;19.774;2023-01-09T08:20:29;99755.63;;;6.92;87.39
72961;BME280;61141;46.204;19.774;2023-01-09T08:23:32;99760.19;;;7.07;87.37
72961;BME280;61141;46.204;19.774;2023-01-09T08:26:35;99770.53;;;6.98;87.52
72961;BME280;61141;46.204;19.774;2023-01-09T08:29:38;99761.91;;;6.96;87.97
72961;BME280;61141;46.204;19.774;2023-01-09T08:32:41;99760.34;;;6.95;88.72
72961;BME280;61141;46.204;19.774;2023-01-09T08:35:44;99760.06;;;7.00;89.08
72961;BME280;61141;46.204;19.774;2023-01-09T08:38:47;99752.03;;;6.88;89.01
72961;BME280;61141;46.204;19.774;2023-01-09T08:41:50;99730.53;;;7.02;89.44
72961;BME280;61141;46.204;19.774;2023-01-09T08:45:11;99729.78;;;7.24;89.65
72961;BME280;61141;46.204;19.774;2023-01-09T08:48:33;99746.31;;;6.93;90.71
72961;BME280;61141;46.204;19.774;2023-01-09T08:51:36;99752.28;;;6.79;92.23
72961;BME280;61141;46.204;19.774;2023-01-09T08:54:39;99748.09;;;6.85;93.19
72961;BME280;61141;46.204;19.774;2023-01-09T08:58:00;99754.84;;;6.91;93.27
72961;BME280;61141;46.204;19.774;2023-01-09T09:01:06;99755.03;;;6.64;94.63
72961;BME280;61141;46.204;19.774;2023-01-09T09:04:09;99757.75;;;7.02;94.69
72961;BME280;61141;46.204;19.774;2023-01-09T09:07:13;99751.25;;;7.06;94.34
72961;BME280;61141;46.204;19.774;2023-01-09T09:10:16;99748.38;;;6.99;94.43
72961;BME280;61141;46.204;19.774;2023-01-09T09:13:20;99741.63;;;6.93;95.09
72961;BME280;61141;46.204;19.774;2023-01-09T09:16:23;99740.38;;;7.06;94.82
72961;BME280;61141;46.204;19.774;2023-01-09T09:19:26;99749.19;;;6.81;95.40
72961;BME280;61141;46.204;19.774;2023-01-09T09:22:29;99745.94;;;6.94;96.94
72961;BME280;61141;46.204;19.774;2023-01-09T09:25:34;99739.16;;;6.85;97.07
72961;BME280;61141;46.204;19.774;2023-01-09T09:28:39;99720.53;;;6.87;96.94
72961;BME280;61141;46.204;19.774;2023-01-09T09:31:43;99717.22;;;6.97;96.85
72961;BME280;61141;46.204;19.774;2023-01-09T09:34:45;99709.03;;;6.97;97.57
72961;BME280;61141;46.204;19.774;2023-01-09T09:37:56;99711.44;;;6.98;97.70
72961;BME280;61141;46.204;19.774;2023-01-09T09:45:35;99710.19;;;7.15;97.55
72961;BME280;61141;46.204;19.774;2023-01-09T09:51:46;99690.75;;;7.17;98.23
72961;BME280;61141;46.204;19.774;2023-01-09T09:54:51;99679.78;;;7.13;98.49
72961;BME280;61141;46.204;19.774;2023-01-09T09:57:55;99675.72;;;7.03;98.68
72961;BME280;61141;46.204;19.774;2023-01-09T10:01:00;99669.41;;;6.99;98.99
72961;BME280;61141;46.204;19.774;2023-01-09T10:04:09;99665.31;;;7.09;99.20
72961;BME280;61141;46.204;19.774;2023-01-09T10:07:26;99661.09;;;7.12;99.67
72961;BME280;61141;46.204;19.774;2023-01-09T10:10:43;99657.97;;;6.90;100.00
72961;BME280;61141;46.204;19.774;2023-01-09T10:13:48;99664.16;;;7.10;100.00
72961;BME280;61141;46.204;19.774;2023-01-09T10:24:08;99651.09;;;7.42;99.24
72961;BME280;61141;46.204;19.774;2023-01-09T10:27:19;99634.50;;;7.50;99.33
72961;BME280;61141;46.204;19.774;2023-01-09T10:33:56;99612.66;;;7.73;97.93
72961;BME280;61141;46.204;19.774;2023-01-09T10:40:37;99598.56;;;8.27;95.78
72961;BME280;61141;46.204;19.774;2023-01-09T10:43:56;99580.91;;;8.21;96.61
72961;BME280;61141;46.204;19.774;2023-01-09T10:47:07;99583.28;;;8.22;96.71
72961;BME280;61141;46.204;19.774;2023-01-09T10:50:27;99579.34;;;8.50;95.52
72961;BME280;61141;46.204;19.774;2023-01-09T10:53:35;99567.13;;;8.40;96.36
72961;BME280;61141;46.204;19.774;2023-01-09T10:56:44;99559.25;;;8.32;95.47
72961;BME280;61141;46.204;19.774;2023-01-09T10:59:49;99545.28;;;8.37;95.55
72961;BME280;61141;46.204;19.774;2023-01-09T11:02:53;99546.94;;;8.48;94.67
72961;BME280;61141;46.204;19.774;2023-01-09T11:05:57;99530.50;;;8.41;95.26
72961;BME280;61141;46.204;19.774;2023-01-09T11:09:01;99523.75;;;8.28;95.75
72961;BME280;61141;46.204;19.774;2023-01-09T11:12:25;99516.06;;;8.41;94.96
72961;BME280;61141;46.204;19.774;2023-01-09T11:15:29;99510.66;;;8.44;95.07
72961;BME280;61141;46.204;19.774;2023-01-09T11:18:33;99509.44;;;8.38;94.27
72961;BME280;61141;46.204;19.774;2023-01-09T11:21:37;99507.09;;;8.37;94.40
72961;BME280;61141;46.204;19.774;2023-01-09T11:24:42;99507.88;;;8.41;94.94
72961;BME280;61141;46.204;19.774;2023-01-09T11:28:05;99501.28;;;8.45;94.61
72961;BME280;61141;46.204;19.774;2023-01-09T11:31:08;99500.56;;;8.48;94.41
72961;BME280;61141;46.204;19.774;2023-01-09T11:34:16;99496.63;;;8.42;94.62
72961;BME280;61141;46.204;19.774;2023-01-09T11:37:30;99485.31;;;8.44;95.29
72961;BME280;61141;46.204;19.774;2023-01-09T11:40:56;99471.94;;;8.32;96.54
72961;BME280;61141;46.204;19.774;2023-01-09T11:44:02;99477.53;;;8.46;95.24
72961;BME280;61141;46.204;19.774;2023-01-09T11:47:24;99467.47;;;8.53;95.37
72961;BME280;61141;46.204;19.774;2023-01-09T11:50:28;99472.16;;;8.53;95.31
72961;BME280;61141;46.204;19.774;2023-01-09T11:53:48;99479.31;;;8.71;94.83
72961;BME280;61141;46.204;19.774;2023-01-09T11:56:54;99480.44;;;8.63;94.71
72961;BME280;61141;46.204;19.774;2023-01-09T12:00:01;99477.50;;;8.42;95.74
72961;BME280;61141;46.204;19.774;2023-01-09T12:03:17;99469.03;;;8.54;96.05
72961;BME280;61141;46.204;19.774;2023-01-09T12:16:14;99475.53;;;8.86;93.79
72961;BME280;61141;46.204;19.774;2023-01-09T12:26:16;99447.63;;;8.60;94.91
72961;BME280;61141;46.204;19.774;2023-01-09T12:35:40;99427.59;;;8.89;92.76
72961;BME280;61141;46.204;19.774;2023-01-09T12:38:54;99423.59;;;8.79;93.83
72961;BME280;61141;46.204;19.774;2023-01-09T12:52:19;99410.66;;;8.73;93.46
72961;BME280;61141;46.204;19.774;2023-01-09T12:55:34;99401.34;;;8.77;93.20
72961;BME280;61141;46.204;19.774;2023-01-09T12:58:42;99408.09;;;8.98;92.14
72961;BME280;61141;46.204;19.774;2023-01-09T13:01:47;99399.41;;;8.81;93.48
72961;BME280;61141;46.204;19.774;2023-01-09T13:05:19;99402.19;;;8.85;92.84
72961;BME280;61141;46.204;19.774;2023-01-09T13:08:30;99398.72;;;8.41;95.75
72961;BME280;61141;46.204;19.774;2023-01-09T13:11:40;99388.75;;;8.59;95.22
72961;BME280;61141;46.204;19.774;2023-01-09T13:21:11;99390.22;;;8.49;96.19
72961;BME280;61141;46.204;19.774;2023-01-09T13:27:25;99392.94;;;8.46;97.86
72961;BME280;61141;46.204;19.774;2023-01-09T13:34:01;99387.03;;;8.40;98.84
72961;BME280;61141;46.204;19.774;2023-01-09T13:37:23;99375.37;;;8.43;99.35
72961;BME280;61141;46.204;19.774;2023-01-09T13:40:28;99370.31;;;8.45;98.62
72961;BME280;61141;46.204;19.774;2023-01-09T13:43:52;99383.94;;;8.45;99.13
72961;BME280;61141;46.204;19.774;2023-01-09T13:46:58;99391.63;;;8.29;99.36
72961;BME280;61141;46.204;19.774;2023-01-09T13:56:19;99369.81;;;8.33;99.73
72961;BME280;61141;46.204;19.774;2023-01-09T13:59:27;99374.72;;;8.60;98.86
72961;BME280;61141;46.204;19.774;2023-01-09T14:08:39;99348.28;;;8.71;97.56
72961;BME280;61141;46.204;19.774;2023-01-09T14:11:45;99351.91;;;8.35;97.83
72961;BME280;61141;46.204;19.774;2023-01-09T14:14:51;99339.53;;;8.45;97.55
72961;BME280;61141;46.204;19.774;2023-01-09T14:18:04;99349.06;;;8.72;96.28
72961;BME280;61141;46.204;19.774;2023-01-09T14:21:09;99337.66;;;8.59;96.59
72961;BME280;61141;46.204;19.774;2023-01-09T14:24:30;99334.75;;;8.31;97.72
72961;BME280;61141;46.204;19.774;2023-01-09T14:28:04;99329.06;;;8.57;97.08
72961;BME280;61141;46.204;19.774;2023-01-09T14:31:28;99333.50;;;8.25;98.02
72961;BME280;61141;46.204;19.774;2023-01-09T14:34:35;99322.94;;;8.20;98.42
72961;BME280;61141;46.204;19.774;2023-01-09T14:37:39;99325.41;;;8.36;97.80
72961;BME280;61141;46.204;19.774;2023-01-09T14:44:55;99321.56;;;8.44;97.39
72961;BME280;61141;46.204;19.774;2023-01-09T14:48:06;99309.78;;;8.29;96.92
72961;BME280;61141;46.204;19.774;2023-01-09T14:51:15;99296.53;;;8.27;97.20
72961;BME280;61141;46.204;19.774;2023-01-09T14:54:27;99289.00;;;8.17;97.00
72961;BME280;61141;46.204;19.774;2023-01-09T14:57:33;99287.56;;;8.27;96.71
72961;BME280;61141;46.204;19.774;2023-01-09T15:00:36;99290.38;;;8.41;96.61
72961;BME280;61141;46.204;19.774;2023-01-09T15:03:48;99291.09;;;8.35;96.49
72961;BME280;61141;46.204;19.774;2023-01-09T15:06:52;99294.22;;;8.33;95.97
72961;BME280;61141;46.204;19.774;2023-01-09T15:09:59;99287.56;;;8.27;96.42
72961;BME280;61141;46.204;19.774;2023-01-09T15:13:05;99290.06;;;8.02;97.42
72961;BME280;61141;46.204;19.774;2023-01-09T15:16:17;99278.44;;;8.09;98.26
72961;BME280;61141;46.204;19.774;2023-01-09T15:19:20;99290.75;;;8.40;96.47
72961;BME280;61141;46.204;19.774;2023-01-09T15:22:34;99278.84;;;8.11;96.74
72961;BME280;61141;46.204;19.774;2023-01-09T15:25:37;99266.81;;;8.19;96.60
72961;BME280;61141;46.204;19.774;2023-01-09T15:28:42;99272.75;;;8.28;96.27
72961;BME280;61141;46.204;19.774;2023-01-09T15:31:48;99266.84;;;8.26;96.49
72961;BME280;61141;46.204;19.774;2023-01-09T15:34:52;99263.66;;;8.13;96.64
72961;BME280;61141;46.204;19.774;2023-01-09T15:37:57;99258.12;;;8.03;96.79
72961;BME280;61141;46.204;19.774;2023-01-09T15:41:05;99255.09;;;8.15;96.70
72961;BME280;61141;46.204;19.774;2023-01-09T15:44:18;99259.84;;;8.25;95.76
72961;BME280;61141;46.204;19.774;2023-01-09T15:47:23;99251.97;;;8.13;95.53
72961;BME280;61141;46.204;19.774;2023-01-09T15:50:29;99248.50;;;8.23;95.20
72961;BME280;61141;46.204;19.774;2023-01-09T15:53:33;99254.34;;;8.21;95.48
72961;BME280;61141;46.204;19.774;2023-01-09T15:56:35;99248.94;;;8.25;94.68
72961;BME280;61141;46.204;19.774;2023-01-09T15:59:40;99253.53;;;8.17;94.99
72961;BME280;61141;46.204;19.774;2023-01-09T16:02:44;99252.38;;;8.18;95.28
72961;BME280;61141;46.204;19.774;2023-01-09T16:06:09;99253.47;;;8.07;95.02
72961;BME280;61141;46.204;19.774;2023-01-09T16:09:27;99253.03;;;7.98;95.48
72961;BME280;61141;46.204;19.774;2023-01-09T16:12:32;99246.75;;;7.94;95.35
72961;BME280;61141;46.204;19.774;2023-01-09T16:15:34;99240.09;;;7.88;95.61
72961;BME280;61141;46.204;19.774;2023-01-09T16:18:39;99239.28;;;7.87;95.91
72961;BME280;61141;46.204;19.774;2023-01-09T16:21:56;99239.28;;;7.84;95.74
72961;BME280;61141;46.204;19.774;2023-01-09T16:25:16;99239.66;;;7.82;95.73
72961;BME280;61141;46.204;19.774;2023-01-09T16:28:24;99225.28;;;7.85;95.77
72961;BME280;61141;46.204;19.774;2023-01-09T16:31:32;99233.34;;;7.71;95.31
72961;BME280;61141;46.204;19.774;2023-01-09T16:34:35;99222.91;;;7.80;94.49
72961;BME280;61141;46.204;19.774;2023-01-09T16:37:38;99231.94;;;7.91;94.16
72961;BME280;61141;46.204;19.774;2023-01-09T16:41:06;99226.81;;;7.83;94.04
72961;BME280;61141;46.204;19.774;2023-01-09T16:44:28;99220.56;;;7.82;93.25
72961;BME280;61141;46.204;19.774;2023-01-09T16:47:30;99217.00;;;7.75;93.01
72961;BME280;61141;46.204;19.774;2023-01-09T16:50:33;99209.16;;;7.66;93.10
72961;BME280;61141;46.204;19.774;2023-01-09T16:53:36;99207.19;;;7.63;93.69
72961;BME280;61141;46.204;19.774;2023-01-09T16:56:41;99206.06;;;7.71;93.25
72961;BME280;61141;46.204;19.774;2023-01-09T16:59:44;99209.94;;;7.66;93.47
72961;BME280;61141;46.204;19.774;2023-01-09T17:02:47;99207.87;;;7.53;93.95
72961;BME280;61141;46.204;19.774;2023-01-09T17:05:52;99195.38;;;7.48;93.60
72961;BME280;61141;46.204;19.774;2023-01-09T17:08:57;99199.41;;;7.65;93.18
72961;BME280;61141;46.204;19.774;2023-01-09T17:11:59;99209.63;;;7.75;93.47
72961;BME280;61141;46.204;19.774;2023-01-09T17:15:02;99207.63;;;7.68;93.72
72961;BME280;61141;46.204;19.774;2023-01-09T17:18:15;99190.75;;;7.52;94.06
72961;BME280;61141;46.204;19.774;2023-01-09T17:21:22;99199.25;;;7.44;94.10
72961;BME280;61141;46.204;19.774;2023-01-09T17:24:26;99202.47;;;7.56;94.46
72961;BME280;61141;46.204;19.774;2023-01-09T17:27:47;99201.25;;;7.50;94.32
72961;BME280;61141;46.204;19.774;2023-01-09T17:31:10;99197.75;;;7.50;94.72
72961;BME280;61141;46.204;19.774;2023-01-09T17:34:13;99212.94;;;7.51;95.10
72961;BME280;61141;46.204;19.774;2023-01-09T17:37:17;99214.03;;;7.46;95.44
72961;BME280;61141;46.204;19.774;2023-01-09T17:40:22;99224.94;;;7.43;96.06
72961;BME280;61141;46.204;19.774;2023-01-09T17:43:24;99229.06;;;7.26;96.95
72961;BME280;61141;46.204;19.774;2023-01-09T17:46:29;99232.53;;;7.23;98.19
72961;BME280;61141;46.204;19.774;2023-01-09T17:49:32;99228.63;;;7.24;98.04
72961;BME280;61141;46.204;19.774;2023-01-09T17:52:36;99228.22;;;7.22;99.58
72961;BME280;61141;46.204;19.774;2023-01-09T17:55:40;99209.50;;;7.17;99.54
72961;BME280;61141;46.204;19.774;2023-01-09T17:58:43;99217.22;;;7.12;100.00
72961;BME280;61141;46.204;19.774;2023-01-09T18:01:49;99203.66;;;7.19;99.96
72961;BME280;61141;46.204;19.774;2023-01-09T18:04:52;99195.09;;;7.17;100.00
72961;BME280;61141;46.204;19.774;2023-01-09T18:07:56;99197.88;;;7.20;100.00
72961;BME280;61141;46.204;19.774;2023-01-09T18:11:03;99190.78;;;7.12;100.00
72961;BME280;61141;46.204;19.774;2023-01-09T18:14:07;99183.56;;;7.30;99.40
72961;BME280;61141;46.204;19.774;2023-01-09T18:17:11;99183.16;;;7.28;99.75
72961;BME280;61141;46.204;19.774;2023-01-09T18:20:14;99176.53;;;7.29;99.24
72961;BME280;61141;46.204;19.774;2023-01-09T18:23:18;99175.53;;;7.04;100.00
72961;BME280;61141;46.204;19.774;2023-01-09T18:26:23;99170.00;;;6.97;100.00